createdAt,value
2023-03-02T00:02:22.500Z,5.13
2023-03-02T00:04:55.033Z,4.22
2023-03-02T00:07:27.452Z,5.70
2023-03-02T00:09:55.086Z,4.15
2023-03-02T00:12:21.910Z,3.63
2023-03-02T00:14:48.495Z,4.85
2023-03-02T00:17:15.228Z,4.03
2023-03-02T00:19:41.976Z,5.15
2023-03-02T00:22:10.153Z,4.70
2023-03-02T00:24:37.839Z,3.83
2023-03-02T00:27:04.567Z,3.70
2023-03-02T00:29:31.233Z,3.70
2023-03-02T00:31:57.988Z,3.78
2023-03-02T00:34:24.626Z,3.50
2023-03-02T00:36:51.297Z,3.67
2023-03-02T00:39:20.119Z,5.25
2023-03-02T00:41:48.317Z,3.95
2023-03-02T00:44:17.459Z,4.32
2023-03-02T00:46:45.066Z,3.83
2023-03-02T00:49:12.544Z,3.97
2023-03-02T00:51:39.336Z,4.18
2023-03-02T00:54:06.247Z,3.53
2023-03-02T00:56:33.434Z,4.55
2023-03-02T00:59:05.562Z,3.67
2023-03-02T01:01:32.378Z,3.45
2023-03-02T01:03:59.257Z,4.32
2023-03-02T01:06:26.269Z,3.80
2023-03-02T01:08:53.214Z,4.22
2023-03-02T01:11:22.172Z,3.63
2023-03-02T01:13:50.353Z,3.42
2023-03-02T01:16:17.251Z,5.57
2023-03-02T01:18:44.001Z,3.33
2023-03-02T01:21:15.934Z,3.63
2023-03-02T01:23:44.085Z,3.35
2023-03-02T01:26:11.109Z,4.35
2023-03-02T01:28:37.733Z,3.55
2023-03-02T01:31:04.838Z,3.58
2023-03-02T01:33:32.301Z,3.63
2023-03-02T01:35:59.078Z,3.50
2023-03-02T01:38:26.125Z,3.72
2023-03-02T01:44:44.574Z,3.28
2023-03-02T01:47:25.434Z,3.50
2023-03-02T01:50:17.584Z,4.38
2023-03-02T01:52:44.274Z,3.40
2023-03-02T01:55:14.888Z,3.67
2023-03-02T01:57:46.569Z,3.72
2023-03-02T02:00:21.885Z,3.75
2023-03-02T02:02:49.498Z,3.20
2023-03-02T02:05:23.047Z,3.50
2023-03-02T02:07:49.841Z,3.95
2023-03-02T02:10:17.075Z,3.58
2023-03-02T02:12:43.836Z,3.22
2023-03-02T02:15:11.030Z,3.35
2023-03-02T02:17:37.650Z,3.40
2023-03-02T02:20:13.156Z,3.55
2023-03-02T02:22:54.604Z,3.00
2023-03-02T02:25:33.006Z,3.30
2023-03-02T02:28:00.178Z,3.30
2023-03-02T02:30:27.786Z,3.28
2023-03-02T02:32:55.342Z,3.85
2023-03-02T02:35:27.381Z,3.00
2023-03-02T02:40:58.452Z,2.85
2023-03-02T02:43:27.592Z,3.28
2023-03-02T02:45:56.507Z,3.28
2023-03-02T02:48:25.309Z,3.63
2023-03-02T02:51:00.206Z,3.55
2023-03-02T02:53:48.512Z,3.20
2023-03-02T02:56:17.016Z,3.40
2023-03-02T02:58:48.513Z,3.15
2023-03-02T03:01:17.558Z,2.90
2023-03-02T03:03:53.974Z,3.10
2023-03-02T03:06:25.805Z,2.80
2023-03-02T03:08:56.283Z,3.08
2023-03-02T03:11:29.467Z,3.40
2023-03-02T03:14:08.523Z,3.15
2023-03-02T03:16:37.050Z,3.00
2023-03-02T03:19:10.302Z,4.07
2023-03-02T03:21:37.038Z,3.10
2023-03-02T03:24:03.937Z,2.90
2023-03-02T03:26:30.922Z,3.20
2023-03-02T03:28:57.866Z,2.72
2023-03-02T03:31:26.739Z,2.90
2023-03-02T03:33:54.880Z,3.10
2023-03-02T03:36:22.774Z,2.92
2023-03-02T03:38:49.437Z,3.33
2023-03-02T03:41:16.409Z,3.00
2023-03-02T03:43:43.097Z,2.92
2023-03-02T03:46:10.163Z,3.17
2023-03-02T03:48:36.901Z,3.63
2023-03-02T03:51:04.073Z,2.92
2023-03-02T03:53:31.044Z,2.78
2023-03-02T03:55:57.700Z,2.75
2023-03-02T03:58:25.417Z,3.10
2023-03-02T04:00:52.996Z,2.95
2023-03-02T04:03:20.313Z,3.53
2023-03-02T04:05:47.994Z,3.60
2023-03-02T04:08:14.597Z,2.70
2023-03-02T04:10:41.552Z,2.72
2023-03-02T04:13:08.591Z,3.00
2023-03-02T04:15:35.929Z,2.88
2023-03-02T04:18:02.924Z,3.10
2023-03-02T04:20:30.262Z,2.90
2023-03-02T04:22:58.023Z,3.20
2023-03-02T04:25:27.599Z,3.50
2023-03-02T04:27:54.773Z,3.25
2023-03-02T04:30:25.139Z,2.97
2023-03-02T04:32:51.760Z,3.00
2023-03-02T04:35:18.747Z,2.55
2023-03-02T04:37:46.964Z,3.20
2023-03-02T04:40:14.812Z,2.90
2023-03-02T04:42:41.774Z,3.00
2023-03-02T04:45:09.009Z,2.70
2023-03-02T04:47:35.767Z,2.70
2023-03-02T04:50:02.517Z,2.95
2023-03-02T04:52:29.135Z,2.92
2023-03-02T04:54:56.001Z,2.75
2023-03-02T04:57:22.669Z,3.17
2023-03-02T04:59:49.313Z,3.28
2023-03-02T05:02:16.015Z,2.97
2023-03-02T05:04:42.765Z,3.20
2023-03-02T05:07:09.456Z,2.63
2023-03-02T05:09:36.129Z,2.65
2023-03-02T05:12:02.879Z,2.60
2023-03-02T05:14:31.505Z,2.90
2023-03-02T05:16:58.282Z,2.58
2023-03-02T05:19:24.883Z,3.13
2023-03-02T05:21:51.506Z,2.97
2023-03-02T05:24:18.202Z,2.88
2023-03-02T05:26:44.856Z,2.78
2023-03-02T05:29:11.461Z,2.67
2023-03-02T05:31:43.922Z,2.72
2023-03-02T05:34:13.781Z,2.75
2023-03-02T05:36:40.702Z,3.45
2023-03-02T05:39:07.948Z,2.83
2023-03-02T05:41:35.682Z,3.10
2023-03-02T05:44:02.692Z,2.80
2023-03-02T05:46:29.462Z,20.42
2023-03-02T05:48:56.222Z,23.08
2023-03-02T05:51:23.100Z,26.38
2023-03-02T05:53:50.233Z,28.40
2023-03-02T05:56:17.078Z,24.85
2023-03-02T05:58:43.782Z,25.52
2023-03-02T06:01:13.652Z,25.85
2023-03-02T06:03:42.511Z,26.50
2023-03-02T06:06:13.744Z,21.35
2023-03-02T06:08:42.751Z,20.05
2023-03-02T06:11:10.125Z,17.88
2023-03-02T06:13:37.295Z,16.00
2023-03-02T06:16:04.381Z,17.02
2023-03-02T06:18:31.224Z,12.38
2023-03-02T06:20:58.074Z,11.98
2023-03-02T06:23:24.774Z,12.45
2023-03-02T06:25:51.517Z,19.38
2023-03-02T06:28:19.904Z,11.88
2023-03-02T06:30:48.639Z,9.82
2023-03-02T06:33:21.051Z,13.50
2023-03-02T06:35:48.309Z,11.30
2023-03-02T06:38:14.926Z,13.77
2023-03-02T06:40:41.503Z,13.20
2023-03-02T06:43:08.046Z,17.92
2023-03-02T06:45:34.771Z,12.73
2023-03-02T06:48:02.288Z,12.07
2023-03-02T06:50:28.925Z,9.70
2023-03-02T06:52:55.537Z,8.98
2023-03-02T06:55:22.706Z,11.32
2023-03-02T06:57:49.266Z,10.10
2023-03-02T07:00:17.519Z,12.38
2023-03-02T07:02:45.158Z,12.38
2023-03-02T07:05:11.972Z,9.68
2023-03-02T07:07:38.877Z,11.85
2023-03-02T07:10:07.422Z,11.20
2023-03-02T07:12:34.145Z,10.88
2023-03-02T07:15:00.950Z,11.55
2023-03-02T07:17:27.522Z,10.10
2023-03-02T07:19:54.259Z,9.93
2023-03-02T07:22:20.842Z,11.65
2023-03-02T07:24:47.453Z,10.52
2023-03-02T07:27:14.049Z,9.68
2023-03-02T07:29:40.621Z,11.00
2023-03-02T07:32:07.309Z,10.35
2023-03-02T07:34:33.973Z,8.98
2023-03-02T07:37:00.637Z,8.75
2023-03-02T07:39:27.349Z,9.45
2023-03-02T07:41:58.114Z,9.32
2023-03-02T07:44:24.707Z,9.70
2023-03-02T07:46:51.451Z,11.00
2023-03-02T07:49:18.338Z,9.77
2023-03-02T07:51:44.889Z,10.13
2023-03-02T07:54:11.516Z,8.68
2023-03-02T07:56:38.095Z,10.68
2023-03-02T07:59:04.671Z,8.70
2023-03-02T08:01:31.806Z,11.60
2023-03-02T08:03:58.709Z,9.30
2023-03-02T08:06:25.362Z,9.95
2023-03-02T08:08:51.981Z,12.13
2023-03-02T08:11:19.295Z,9.48
2023-03-02T08:13:46.665Z,7.68
2023-03-02T08:16:15.138Z,8.52
2023-03-02T08:18:42.520Z,8.75
2023-03-02T08:21:19.915Z,9.63
2023-03-02T08:23:46.654Z,7.93
2023-03-02T08:26:17.076Z,9.02
2023-03-02T08:28:44.391Z,8.00
2023-03-02T08:31:11.865Z,9.27
2023-03-02T08:33:38.838Z,8.90
2023-03-02T08:36:09.288Z,10.07
2023-03-02T08:38:36.486Z,8.93
2023-03-02T08:41:06.520Z,8.82
2023-03-02T08:43:33.747Z,8.77
2023-03-02T08:46:00.673Z,7.65
2023-03-02T08:48:28.330Z,8.48
2023-03-02T08:51:22.873Z,8.20
2023-03-02T08:53:51.625Z,8.70
2023-03-02T08:56:30.011Z,7.93
2023-03-02T08:59:00.161Z,8.70
2023-03-02T09:01:29.894Z,8.38
2023-03-02T09:03:59.645Z,7.03
2023-03-02T09:06:28.284Z,8.25
2023-03-02T09:08:55.294Z,9.82
2023-03-02T09:11:21.920Z,7.38
2023-03-02T09:13:48.521Z,8.27
2023-03-02T09:16:15.354Z,7.15
2023-03-02T09:18:42.361Z,7.95
2023-03-02T09:21:09.356Z,7.57
2023-03-02T09:23:36.540Z,7.65
2023-03-02T09:26:04.648Z,7.45
2023-03-02T09:28:31.563Z,8.48
2023-03-02T09:30:59.834Z,7.32
2023-03-02T09:33:27.338Z,8.23
2023-03-02T09:35:53.968Z,8.88
2023-03-02T09:38:21.248Z,7.85
2023-03-02T09:41:09.374Z,7.68
2023-03-02T09:43:38.937Z,7.90
2023-03-02T09:46:12.395Z,8.75
2023-03-02T09:48:45.016Z,7.90
2023-03-02T09:51:27.479Z,8.18
2023-03-02T09:54:10.923Z,7.95
2023-03-02T09:56:43.724Z,8.23
2023-03-02T09:59:24.630Z,7.70
2023-03-02T10:02:23.333Z,8.80
2023-03-02T10:04:54.237Z,8.43
2023-03-02T10:07:31.487Z,7.13
2023-03-02T10:10:18.327Z,7.53
2023-03-02T10:13:21.204Z,6.88
2023-03-02T10:16:18.165Z,7.10
2023-03-02T10:18:58.860Z,8.02
2023-03-02T10:21:32.087Z,8.35
2023-03-02T10:24:05.925Z,6.93
2023-03-02T10:26:59.890Z,7.72
2023-03-02T10:29:41.433Z,7.80
2023-03-02T10:32:21.812Z,8.63
2023-03-02T10:34:50.872Z,8.18
2023-03-02T10:37:25.204Z,7.13
2023-03-02T10:39:52.833Z,6.70
2023-03-02T10:42:36.877Z,7.25
2023-03-02T10:45:23.536Z,7.45
2023-03-02T10:48:03.553Z,7.95
2023-03-02T10:50:30.634Z,8.27
2023-03-02T10:53:00.774Z,7.15
2023-03-02T10:55:29.268Z,7.90
2023-03-02T10:58:02.675Z,7.13
2023-03-02T11:00:31.158Z,7.95
2023-03-02T11:03:03.754Z,8.02
2023-03-02T11:05:33.608Z,6.65
2023-03-02T11:08:03.166Z,6.55
2023-03-02T11:10:34.138Z,6.75
2023-03-02T11:13:03.023Z,7.43
2023-03-02T11:15:32.606Z,7.15
2023-03-02T11:18:06.771Z,6.82
2023-03-02T11:20:38.522Z,8.30
2023-03-02T11:23:17.176Z,6.70
2023-03-02T11:25:55.426Z,6.15
2023-03-02T11:28:34.728Z,7.00
2023-03-02T11:31:05.340Z,7.25
2023-03-02T11:33:42.498Z,8.50
2023-03-02T11:36:23.707Z,8.00
2023-03-02T11:38:55.986Z,6.75
2023-03-02T11:41:33.132Z,6.45
2023-03-02T11:44:14.084Z,8.15
2023-03-02T11:46:44.133Z,9.75
2023-03-02T11:49:25.318Z,6.53
2023-03-02T11:52:00.468Z,6.28
2023-03-02T11:54:36.527Z,6.80
2023-03-02T11:57:04.096Z,6.75
2023-03-02T11:59:31.951Z,6.78
2023-03-02T12:02:00.500Z,7.00
2023-03-02T12:04:33.779Z,8.40
2023-03-02T12:07:04.031Z,7.15
2023-03-02T12:09:34.999Z,7.50
2023-03-02T12:12:20.189Z,5.90
2023-03-02T12:14:46.760Z,6.50
2023-03-02T12:17:25.167Z,6.78
2023-03-02T12:19:54.442Z,6.50
2023-03-02T12:22:32.019Z,6.63
2023-03-02T12:25:00.945Z,5.90
2023-03-02T12:27:34.208Z,6.05
2023-03-02T12:30:00.797Z,6.82
2023-03-02T12:32:30.611Z,7.07
2023-03-02T12:35:09.142Z,7.88
2023-03-02T12:37:57.058Z,6.72
2023-03-02T12:40:44.785Z,6.05
2023-03-02T12:43:22.972Z,6.13
2023-03-02T12:45:59.384Z,6.63
2023-03-02T12:48:51.417Z,7.70
2023-03-02T12:51:22.183Z,6.65
2023-03-02T12:53:50.366Z,6.95
2023-03-02T12:56:24.935Z,7.18
2023-03-02T12:58:53.396Z,6.03
2023-03-02T13:01:26.926Z,5.95
2023-03-02T13:03:54.735Z,7.22
2023-03-02T13:06:24.178Z,6.53
2023-03-02T13:08:55.332Z,8.18
2023-03-02T13:11:31.026Z,6.03
2023-03-02T13:13:59.399Z,5.88
2023-03-02T13:16:32.404Z,6.28
2023-03-02T13:19:05.478Z,6.03
2023-03-02T13:21:38.137Z,6.50
2023-03-02T13:24:28.923Z,7.03
2023-03-02T13:27:03.856Z,6.22
2023-03-02T13:29:31.747Z,6.78
2023-03-02T13:32:25.049Z,6.55
2023-03-02T13:35:02.810Z,5.88
2023-03-02T13:37:40.504Z,6.00
2023-03-02T13:40:27.176Z,5.80
2023-03-02T13:42:54.370Z,5.82
2023-03-02T13:45:32.324Z,6.57
2023-03-02T13:48:11.692Z,6.03
2023-03-02T13:50:38.605Z,6.82
2023-03-02T13:53:07.077Z,6.68
2023-03-02T13:55:34.485Z,6.38
2023-03-02T13:58:01.673Z,6.25
2023-03-02T14:00:33.951Z,6.35
2023-03-02T14:03:01.301Z,6.47
2023-03-02T14:05:33.225Z,5.53
2023-03-02T14:10:27.356Z,6.60
2023-03-02T14:13:07.342Z,6.18
2023-03-02T14:15:36.998Z,6.53
2023-03-02T14:18:03.718Z,7.05
2023-03-02T14:20:30.285Z,6.25
2023-03-02T14:22:56.997Z,5.63
2023-03-02T14:25:24.620Z,5.88
2023-03-02T14:27:51.239Z,6.32
2023-03-02T14:30:20.244Z,5.88
2023-03-02T14:32:47.461Z,7.10
2023-03-02T14:35:16.479Z,6.13
2023-03-02T14:37:48.865Z,6.30
2023-03-02T14:40:25.348Z,6.55
2023-03-02T14:42:52.063Z,5.38
2023-03-02T14:45:20.722Z,5.97
2023-03-02T14:47:48.756Z,5.38
2023-03-02T14:50:16.829Z,5.35
2023-03-02T14:52:49.532Z,7.55
2023-03-02T14:55:25.637Z,5.47
2023-03-02T14:58:17.215Z,5.10
2023-03-02T15:00:45.075Z,6.07
2023-03-02T15:03:16.785Z,6.55
2023-03-02T15:05:51.757Z,5.22
2023-03-02T15:08:25.785Z,5.55
2023-03-02T15:10:53.042Z,5.38
2023-03-02T15:13:19.567Z,5.85
2023-03-02T15:15:46.461Z,5.80
2023-03-02T15:18:16.827Z,5.10
2023-03-02T15:20:43.378Z,6.68
2023-03-02T15:23:09.931Z,6.22
2023-03-02T15:25:36.562Z,5.40
2023-03-02T15:28:04.583Z,5.28
2023-03-02T15:30:31.132Z,5.63
2023-03-02T15:32:59.370Z,6.13
2023-03-02T15:35:27.900Z,5.45
2023-03-02T15:37:55.590Z,5.35
2023-03-02T15:40:22.154Z,5.13
2023-03-02T15:42:48.933Z,4.50
2023-03-02T15:45:15.565Z,5.13
2023-03-02T15:47:42.214Z,6.00
2023-03-02T15:50:09.716Z,5.75
2023-03-02T15:52:36.282Z,5.18
2023-03-02T15:55:03.265Z,6.25
2023-03-02T15:57:29.860Z,5.40
2023-03-02T15:59:56.549Z,5.45
2023-03-02T16:02:23.091Z,5.10
2023-03-02T16:04:49.638Z,5.22
2023-03-02T16:07:16.245Z,6.80
2023-03-02T16:09:45.199Z,5.47
2023-03-02T16:12:11.859Z,5.80
2023-03-02T16:14:38.568Z,6.70
2023-03-02T16:17:05.306Z,6.32
2023-03-02T16:19:32.288Z,5.93
2023-03-02T16:21:58.961Z,5.13
2023-03-02T16:24:25.603Z,14.50
2023-03-02T16:26:53.135Z,17.40
2023-03-02T16:29:19.732Z,16.98
2023-03-02T16:31:47.530Z,19.55
2023-03-02T16:34:14.500Z,13.13
2023-03-02T16:36:42.016Z,13.25
2023-03-02T16:39:10.125Z,11.30
2023-03-02T16:41:38.856Z,13.90
2023-03-02T16:44:06.013Z,11.85
2023-03-02T16:46:36.263Z,10.63
2023-03-02T16:49:04.165Z,17.15
2023-03-02T16:51:30.873Z,12.02
2023-03-02T16:53:58.090Z,10.02
2023-03-02T16:56:25.146Z,12.25
2023-03-02T16:58:51.761Z,12.32
2023-03-02T17:01:20.999Z,8.95
2023-03-02T17:03:49.868Z,10.30
2023-03-02T17:06:19.477Z,13.60
2023-03-02T17:08:46.425Z,13.10
2023-03-02T17:11:13.151Z,9.75
2023-03-02T17:13:40.223Z,21.23
2023-03-02T17:16:07.302Z,18.33
2023-03-02T17:18:34.736Z,73.95
2023-03-02T17:21:01.981Z,48.20
2023-03-02T17:23:29.111Z,44.03
2023-03-02T17:25:56.182Z,39.90
2023-03-02T17:28:23.104Z,35.72
2023-03-02T17:30:49.831Z,32.22
2023-03-02T17:33:17.091Z,32.88
2023-03-02T17:35:43.924Z,34.03
2023-03-02T17:38:11.399Z,34.90
2023-03-02T17:40:38.145Z,33.80
2023-03-02T17:43:04.769Z,34.15
2023-03-02T17:45:31.410Z,38.30
2023-03-02T17:47:58.846Z,29.52
2023-03-02T17:50:27.075Z,30.92
2023-03-02T17:52:54.151Z,28.52
2023-03-02T17:55:20.956Z,27.05
2023-03-02T17:57:47.668Z,29.42
2023-03-02T18:00:18.727Z,29.42
2023-03-02T18:02:45.623Z,24.80
2023-03-02T18:05:12.812Z,29.85
2023-03-02T18:07:39.694Z,24.45
2023-03-02T18:10:07.300Z,28.70
2023-03-02T18:12:34.695Z,27.48
2023-03-02T18:15:01.535Z,22.15
2023-03-02T18:17:28.300Z,22.35
2023-03-02T18:19:54.870Z,21.17
2023-03-02T18:22:21.968Z,23.25
2023-03-02T18:24:50.333Z,20.73
2023-03-02T18:27:17.134Z,20.38
2023-03-02T18:29:43.802Z,22.02
2023-03-02T18:32:11.430Z,19.92
2023-03-02T18:34:38.210Z,18.35
2023-03-02T18:37:04.776Z,19.85
2023-03-02T18:39:31.574Z,22.10
2023-03-02T18:41:58.149Z,26.83
2023-03-02T18:44:27.879Z,22.23
2023-03-02T18:46:55.509Z,18.73
2023-03-02T18:49:23.335Z,18.90
2023-03-02T18:51:50.116Z,20.48
2023-03-02T18:54:16.843Z,19.90
2023-03-02T18:56:43.552Z,19.20
2023-03-02T18:59:10.992Z,18.92
2023-03-02T19:01:37.788Z,16.55
2023-03-02T19:04:05.252Z,16.02
2023-03-02T19:06:33.112Z,20.80
2023-03-02T19:08:59.830Z,15.75
2023-03-02T19:11:26.930Z,16.77
2023-03-02T19:13:53.607Z,14.70
2023-03-02T19:16:20.327Z,15.77
2023-03-02T19:18:46.987Z,18.08
2023-03-02T19:21:13.587Z,17.60
2023-03-02T19:23:41.047Z,18.38
2023-03-02T19:26:08.313Z,17.38
2023-03-02T19:28:37.035Z,15.73
2023-03-02T19:31:06.968Z,14.75
2023-03-02T19:33:33.835Z,14.98
2023-03-02T19:36:00.532Z,17.10
2023-03-02T19:38:29.098Z,17.88
2023-03-02T19:40:57.893Z,14.18
2023-03-02T19:43:25.922Z,15.10
2023-03-02T19:45:52.705Z,13.85
2023-03-02T19:48:19.936Z,16.23
2023-03-02T19:50:47.173Z,14.55
2023-03-02T19:53:14.633Z,14.73
2023-03-02T19:55:42.909Z,22.10
2023-03-02T19:58:12.640Z,14.25
2023-03-02T20:00:39.446Z,11.68
2023-03-02T20:03:08.369Z,12.80
2023-03-02T20:05:36.397Z,15.02
2023-03-02T20:08:03.182Z,14.18
2023-03-02T20:10:34.584Z,13.60
2023-03-02T20:13:01.591Z,11.88
2023-03-02T20:15:29.915Z,13.50
2023-03-02T20:17:58.321Z,13.07
2023-03-02T20:20:26.877Z,12.80
2023-03-02T20:22:53.794Z,9.65
2023-03-02T20:25:21.363Z,13.73
2023-03-02T20:27:51.702Z,13.95
2023-03-02T20:30:27.695Z,12.25
2023-03-02T20:32:56.691Z,11.43
2023-03-02T20:35:24.950Z,10.60
2023-03-02T20:37:52.410Z,11.25
2023-03-02T20:40:19.202Z,15.77
2023-03-02T20:42:45.943Z,13.57
2023-03-02T20:45:13.895Z,12.55
2023-03-02T20:47:42.378Z,14.75
2023-03-02T20:50:13.771Z,13.43
2023-03-02T20:52:40.649Z,12.88
2023-03-02T20:55:08.256Z,11.48
2023-03-02T20:57:35.152Z,11.18
2023-03-02T21:00:06.152Z,11.77
2023-03-02T21:02:32.836Z,13.52
2023-03-02T21:04:59.957Z,13.77
2023-03-02T21:07:26.935Z,11.05
2023-03-02T21:09:53.768Z,11.45
2023-03-02T21:12:20.632Z,11.82
2023-03-02T21:14:47.458Z,11.68
2023-03-02T21:17:14.101Z,12.13
2023-03-02T21:19:40.816Z,14.35
2023-03-02T21:22:07.547Z,13.05
2023-03-02T21:24:34.259Z,13.77
2023-03-02T21:27:01.354Z,14.32
2023-03-02T21:29:28.277Z,11.38
2023-03-02T21:31:55.060Z,9.55
2023-03-02T21:34:22.279Z,11.18
2023-03-02T21:36:53.006Z,10.60
2023-03-02T21:39:23.478Z,12.27
2023-03-02T21:41:50.985Z,8.45
2023-03-02T21:44:18.538Z,12.65
2023-03-02T21:46:45.234Z,9.73
2023-03-02T21:49:16.253Z,13.18
2023-03-02T21:51:42.973Z,10.75
2023-03-02T21:54:10.099Z,9.43
2023-03-02T21:56:37.021Z,12.35
2023-03-02T21:59:04.298Z,7.80
2023-03-02T22:01:32.923Z,9.00
2023-03-02T22:04:01.077Z,8.85
2023-03-02T22:06:30.627Z,12.07
2023-03-02T22:08:58.007Z,9.38
2023-03-02T22:11:28.102Z,9.02
2023-03-02T22:13:58.379Z,9.18
2023-03-02T22:16:37.163Z,10.05
2023-03-02T22:19:19.855Z,6.40
2023-03-02T22:21:49.176Z,8.65
2023-03-02T22:24:29.966Z,9.73
2023-03-02T22:27:08.911Z,10.15
2023-03-02T22:29:44.865Z,7.32
2023-03-02T22:32:21.121Z,8.13
2023-03-02T22:34:50.428Z,8.20
2023-03-02T22:37:26.385Z,9.98
2023-03-02T22:40:00.832Z,8.05
2023-03-02T22:42:30.324Z,7.88
2023-03-02T22:45:15.596Z,7.90
2023-03-02T22:47:43.451Z,10.05
2023-03-02T22:50:21.660Z,10.60
2023-03-02T22:52:48.787Z,10.23
2023-03-02T22:55:36.131Z,7.50
2023-03-02T22:58:36.189Z,8.00
2023-03-02T23:01:03.285Z,5.38
2023-03-02T23:03:39.745Z,6.10
2023-03-02T23:06:27.116Z,7.40
2023-03-02T23:08:59.939Z,7.50
2023-03-02T23:11:27.456Z,7.75
2023-03-02T23:13:55.266Z,7.50
2023-03-02T23:16:25.373Z,8.23
2023-03-02T23:18:54.868Z,7.30
2023-03-02T23:21:23.220Z,9.75
2023-03-02T23:23:50.859Z,6.95
2023-03-02T23:26:19.379Z,6.00
2023-03-02T23:28:48.028Z,7.22
2023-03-02T23:31:15.566Z,8.23
2023-03-02T23:33:42.390Z,6.60
2023-03-02T23:36:09.137Z,7.32
2023-03-02T23:38:35.890Z,7.00
2023-03-02T23:41:02.727Z,6.40
2023-03-02T23:43:29.409Z,6.68
2023-03-02T23:45:56.242Z,7.57
2023-03-02T23:48:23.787Z,6.03
2023-03-02T23:50:50.399Z,5.82
2023-03-02T23:53:17.480Z,6.85
2023-03-02T23:55:48.937Z,8.27
2023-03-02T23:58:16.582Z,6.07
